createdAt,value
2023-05-15T00:01:57.169Z,2.80
2023-05-15T00:04:24.185Z,2.40
2023-05-15T00:06:51.479Z,2.00
2023-05-15T00:09:18.410Z,1.70
2023-05-15T00:11:45.357Z,2.10
2023-05-15T00:14:12.300Z,1.90
2023-05-15T00:16:39.219Z,1.30
2023-05-15T00:19:06.444Z,2.00
2023-05-15T00:21:33.539Z,1.10
2023-05-15T00:24:00.808Z,2.90
2023-05-15T00:26:27.659Z,2.30
2023-05-15T00:28:54.685Z,2.70
2023-05-15T00:31:21.674Z,1.50
2023-05-15T00:33:48.813Z,2.50
2023-05-15T00:36:15.926Z,1.40
2023-05-15T00:38:43.788Z,1.80
2023-05-15T00:41:11.351Z,1.90
2023-05-15T00:43:39.429Z,2.30
2023-05-15T00:46:07.393Z,2.60
2023-05-15T00:48:34.299Z,1.70
2023-05-15T00:51:01.277Z,1.80
2023-05-15T00:53:29.081Z,2.00
2023-05-15T00:55:57.479Z,1.90
2023-05-15T00:58:24.873Z,2.30
2023-05-15T01:00:52.881Z,1.50
2023-05-15T01:03:19.834Z,2.50
2023-05-15T01:05:46.831Z,1.80
2023-05-15T01:08:19.863Z,2.20
2023-05-15T01:10:48.245Z,1.70
2023-05-15T01:13:15.175Z,2.40
2023-05-15T01:15:42.411Z,1.10
2023-05-15T01:18:09.557Z,1.60
2023-05-15T01:21:05.866Z,1.60
2023-05-15T01:23:54.517Z,1.30
2023-05-15T01:26:59.467Z,1.60
2023-05-15T01:29:35.819Z,1.40
2023-05-15T01:32:06.994Z,2.40
2023-05-15T01:34:43.062Z,1.30
2023-05-15T01:37:09.963Z,1.50
2023-05-15T01:39:36.870Z,1.90
2023-05-15T01:42:08.459Z,2.00
2023-05-15T01:44:43.593Z,2.00
2023-05-15T01:47:13.038Z,1.60
2023-05-15T01:49:40.043Z,1.20
2023-05-15T01:52:12.519Z,1.70
2023-05-15T01:54:39.455Z,1.10
2023-05-15T01:57:07.432Z,1.70
2023-05-15T01:59:35.597Z,1.10
2023-05-15T02:02:04.354Z,1.90
2023-05-15T02:04:31.266Z,1.20
2023-05-15T02:06:58.289Z,1.90
2023-05-15T02:09:25.181Z,1.40
2023-05-15T02:11:52.158Z,1.40
2023-05-15T02:14:19.165Z,2.60
2023-05-15T02:16:46.381Z,2.70
2023-05-15T02:19:13.651Z,1.40
2023-05-15T02:21:41.819Z,1.20
2023-05-15T02:24:08.829Z,1.90
2023-05-15T02:26:37.097Z,1.50
2023-05-15T02:29:19.914Z,1.00
2023-05-15T02:31:46.854Z,1.90
2023-05-15T02:34:34.997Z,1.30
2023-05-15T02:37:02.146Z,1.20
2023-05-15T02:39:29.503Z,1.60
2023-05-15T02:41:56.469Z,1.80
2023-05-15T02:44:23.502Z,1.70
2023-05-15T02:46:50.741Z,2.10
2023-05-15T02:49:18.093Z,1.80
2023-05-15T02:51:46.471Z,2.80
2023-05-15T02:54:13.539Z,2.00
2023-05-15T02:56:40.685Z,2.30
2023-05-15T02:59:07.711Z,1.90
2023-05-15T03:01:34.794Z,2.60
2023-05-15T03:04:01.973Z,2.90
2023-05-15T03:06:29.052Z,1.60
2023-05-15T03:08:56.099Z,2.50
2023-05-15T03:11:23.144Z,1.40
2023-05-15T03:13:50.039Z,2.80
2023-05-15T03:16:16.918Z,3.10
2023-05-15T03:18:43.861Z,6.80
2023-05-15T03:21:11.123Z,8.20
2023-05-15T03:23:38.275Z,8.80
2023-05-15T03:26:05.416Z,6.70
2023-05-15T03:28:32.412Z,7.00
2023-05-15T03:30:59.429Z,6.30
2023-05-15T03:33:26.668Z,5.80
2023-05-15T03:35:53.706Z,5.60
2023-05-15T03:38:20.759Z,3.10
2023-05-15T03:40:50.246Z,3.20
2023-05-15T03:43:18.181Z,1.70
2023-05-15T03:45:45.178Z,2.40
2023-05-15T03:48:12.228Z,2.30
2023-05-15T03:50:40.391Z,2.00
2023-05-15T03:53:07.244Z,1.50
2023-05-15T03:55:34.178Z,2.80
2023-05-15T03:58:01.735Z,2.30
2023-05-15T04:00:30.869Z,1.50
2023-05-15T04:02:59.588Z,1.20
2023-05-15T04:05:26.734Z,1.50
2023-05-15T04:07:53.919Z,2.10
2023-05-15T04:10:21.061Z,2.60
2023-05-15T04:12:48.530Z,2.60
2023-05-15T04:15:20.072Z,3.10
2023-05-15T04:17:51.430Z,3.20
2023-05-15T04:20:21.943Z,2.40
2023-05-15T04:22:48.920Z,2.10
2023-05-15T04:25:16.421Z,2.90
2023-05-15T04:27:43.957Z,3.20
2023-05-15T04:30:11.542Z,1.60
2023-05-15T04:32:39.716Z,1.80
2023-05-15T04:35:11.748Z,2.20
2023-05-15T04:37:41.698Z,2.20
2023-05-15T04:40:09.448Z,1.50
2023-05-15T04:42:37.782Z,2.10
2023-05-15T04:45:06.224Z,1.80
2023-05-15T04:47:33.361Z,3.50
2023-05-15T04:50:00.322Z,1.50
2023-05-15T04:52:27.324Z,2.60
2023-05-15T04:54:56.126Z,2.20
2023-05-15T04:57:23.503Z,1.70
2023-05-15T04:59:50.452Z,1.70
2023-05-15T05:02:23.545Z,2.00
2023-05-15T05:04:50.662Z,1.20
2023-05-15T05:07:17.972Z,2.30
2023-05-15T05:09:45.574Z,1.60
2023-05-15T05:12:12.750Z,1.50
2023-05-15T05:14:42.657Z,2.30
2023-05-15T05:17:09.778Z,1.50
2023-05-15T05:19:36.944Z,1.60
2023-05-15T05:22:06.011Z,1.80
2023-05-15T05:24:33.266Z,1.60
2023-05-15T05:27:00.517Z,1.40
2023-05-15T05:29:27.462Z,1.60
2023-05-15T05:31:59.317Z,1.70
2023-05-15T05:34:28.512Z,1.10
2023-05-15T05:36:55.575Z,1.50
2023-05-15T05:39:22.467Z,1.60
2023-05-15T05:41:49.467Z,1.60
2023-05-15T05:44:16.819Z,1.70
2023-05-15T05:46:46.046Z,2.40
2023-05-15T05:49:14.274Z,2.40
2023-05-15T05:51:41.144Z,2.20
2023-05-15T05:54:08.131Z,1.40
2023-05-15T05:56:35.108Z,1.20
2023-05-15T05:59:02.340Z,1.30
2023-05-15T06:01:29.542Z,1.10
2023-05-15T06:03:57.671Z,1.60
2023-05-15T06:06:24.836Z,2.10
2023-05-15T06:08:52.526Z,1.80
2023-05-15T06:11:23.719Z,2.60
2023-05-15T06:13:51.994Z,1.70
2023-05-15T06:16:19.000Z,1.90
2023-05-15T06:18:46.184Z,2.10
2023-05-15T06:21:13.252Z,1.70
2023-05-15T06:23:40.166Z,1.20
2023-05-15T06:26:07.550Z,1.80
2023-05-15T06:28:34.651Z,1.40
2023-05-15T06:31:01.896Z,1.50
2023-05-15T06:33:29.005Z,1.40
2023-05-15T06:35:56.356Z,0.60
2023-05-15T06:38:23.332Z,1.20
2023-05-15T06:40:50.549Z,1.90
2023-05-15T06:43:17.497Z,1.30
2023-05-15T06:45:44.484Z,1.70
2023-05-15T06:48:11.643Z,2.00
2023-05-15T06:50:38.614Z,1.30
2023-05-15T06:53:05.590Z,1.20
2023-05-15T06:55:34.303Z,2.20
2023-05-15T06:58:01.420Z,3.20
2023-05-15T07:00:28.468Z,1.00
2023-05-15T07:02:57.441Z,1.80
2023-05-15T07:05:24.970Z,1.60
2023-05-15T07:07:52.452Z,1.30
2023-05-15T07:10:19.723Z,1.50
2023-05-15T07:12:46.918Z,1.40
2023-05-15T07:15:13.932Z,2.30
2023-05-15T07:17:41.046Z,1.30
2023-05-15T07:20:08.851Z,1.30
2023-05-15T07:22:44.516Z,1.30
2023-05-15T07:25:21.940Z,2.20
2023-05-15T07:27:48.909Z,1.10
2023-05-15T07:30:15.884Z,2.00
2023-05-15T07:32:43.747Z,0.80
2023-05-15T07:35:11.812Z,1.30
2023-05-15T07:37:38.982Z,1.70
2023-05-15T07:40:07.016Z,1.40
2023-05-15T07:42:33.908Z,1.30
2023-05-15T07:45:00.957Z,1.50
2023-05-15T07:47:28.442Z,2.10
2023-05-15T07:50:00.151Z,1.00
2023-05-15T07:52:27.862Z,1.00
2023-05-15T07:54:54.929Z,1.90
2023-05-15T07:57:22.311Z,1.50
2023-05-15T07:59:49.424Z,1.90
2023-05-15T08:02:16.547Z,0.70
2023-05-15T08:04:43.908Z,0.90
2023-05-15T08:07:10.827Z,0.90
2023-05-15T08:09:40.237Z,0.90
2023-05-15T08:12:20.943Z,0.80
2023-05-15T08:14:54.461Z,1.80
2023-05-15T08:17:22.958Z,1.50
2023-05-15T08:19:49.871Z,1.50
2023-05-15T08:22:21.925Z,1.60
2023-05-15T08:24:49.732Z,1.90
2023-05-15T08:34:39.161Z,1.10
2023-05-15T08:37:07.136Z,1.40
2023-05-15T08:39:34.173Z,2.50
2023-05-15T08:42:16.535Z,1.80
2023-05-15T08:44:43.483Z,1.10
2023-05-15T08:47:10.647Z,1.00
2023-05-15T08:54:37.046Z,1.40
2023-05-15T08:57:04.087Z,2.10
2023-05-15T08:59:31.334Z,0.70
2023-05-15T09:02:04.523Z,2.30
2023-05-15T09:04:32.498Z,1.70
2023-05-15T09:07:01.147Z,0.80
2023-05-15T09:09:31.213Z,1.20
2023-05-15T09:11:59.325Z,1.70
2023-05-15T09:14:34.020Z,1.00
2023-05-15T09:17:02.969Z,1.00
2023-05-15T09:19:31.266Z,1.50
2023-05-15T09:22:22.793Z,1.40
2023-05-15T09:24:53.382Z,1.10
2023-05-15T09:27:21.128Z,1.70
2023-05-15T09:29:48.941Z,1.50
2023-05-15T09:32:16.983Z,2.40
2023-05-15T09:34:46.212Z,1.70
2023-05-15T09:37:28.374Z,2.50
2023-05-15T09:39:55.462Z,0.80
2023-05-15T09:42:23.226Z,1.00
2023-05-15T09:44:50.294Z,2.10
2023-05-15T09:47:17.614Z,2.40
2023-05-15T09:49:45.187Z,1.90
2023-05-15T09:52:12.090Z,2.60
2023-05-15T09:54:39.052Z,3.30
2023-05-15T09:57:10.354Z,1.90
2023-05-15T09:59:45.968Z,2.40
2023-05-15T10:02:38.453Z,1.30
2023-05-15T10:05:09.238Z,1.30
2023-05-15T10:07:36.872Z,2.00
2023-05-15T10:10:05.486Z,1.10
2023-05-15T10:12:33.268Z,1.00
2023-05-15T10:15:03.495Z,1.10
2023-05-15T10:17:34.026Z,2.10
2023-05-15T10:20:01.348Z,2.30
2023-05-15T10:22:31.311Z,1.50
2023-05-15T10:25:04.304Z,1.30
2023-05-15T10:27:31.452Z,0.90
2023-05-15T10:29:58.467Z,1.30
2023-05-15T10:32:25.718Z,1.70
2023-05-15T10:34:52.854Z,1.10
2023-05-15T10:37:20.023Z,1.10
2023-05-15T10:39:47.708Z,1.10
2023-05-15T10:42:14.716Z,3.00
2023-05-15T10:44:43.122Z,1.00
2023-05-15T10:47:10.578Z,0.90
2023-05-15T10:49:37.711Z,1.20
2023-05-15T10:52:04.863Z,0.90
2023-05-15T10:54:31.897Z,1.10
2023-05-15T11:06:18.868Z,1.40
2023-05-15T11:08:46.227Z,1.00
2023-05-15T11:11:56.071Z,2.00
2023-05-15T11:14:27.221Z,1.00
2023-05-15T11:16:54.453Z,1.70
2023-05-15T11:19:25.310Z,1.00
2023-05-15T11:21:59.009Z,1.20
2023-05-15T11:24:33.113Z,1.00
2023-05-15T11:27:04.125Z,1.00
2023-05-15T11:29:31.919Z,0.80
2023-05-15T11:32:00.022Z,1.40
2023-05-15T11:34:34.333Z,1.20
2023-05-15T11:37:01.677Z,1.40
2023-05-15T11:39:29.127Z,2.70
2023-05-15T11:41:56.152Z,1.30
2023-05-15T11:44:24.041Z,1.50
2023-05-15T11:46:55.735Z,1.00
2023-05-15T11:49:23.118Z,1.20
2023-05-15T11:51:50.512Z,1.10
2023-05-15T11:54:17.661Z,1.00
2023-05-15T11:56:45.133Z,1.00
2023-05-15T11:59:15.653Z,1.00
2023-05-15T12:01:44.333Z,1.10
2023-05-15T12:04:20.506Z,0.80
2023-05-15T12:06:49.979Z,1.10
2023-05-15T12:09:19.690Z,1.30
2023-05-15T12:11:54.543Z,1.30
2023-05-15T12:14:31.459Z,1.20
2023-05-15T12:17:04.200Z,1.10
2023-05-15T12:19:31.854Z,1.40
2023-05-15T12:21:59.009Z,1.60
2023-05-15T12:24:29.274Z,1.70
2023-05-15T12:26:57.513Z,1.00
2023-05-15T12:29:25.991Z,1.00
2023-05-15T12:31:54.300Z,1.40
2023-05-15T12:34:22.031Z,0.80
2023-05-15T12:36:49.276Z,1.50
2023-05-15T12:39:16.432Z,2.00
2023-05-15T12:41:46.014Z,0.90
2023-05-15T12:44:18.176Z,1.40
2023-05-15T12:46:46.415Z,0.50
2023-05-15T12:49:13.732Z,1.60
2023-05-15T12:51:44.162Z,0.80
2023-05-15T12:54:18.675Z,0.80
2023-05-15T12:56:46.240Z,1.10
2023-05-15T12:59:13.392Z,1.40
2023-05-15T13:01:42.524Z,1.40
2023-05-15T13:04:10.652Z,0.90
2023-05-15T13:06:46.822Z,1.20
2023-05-15T13:09:15.086Z,2.00
2023-05-15T13:11:45.632Z,1.20
2023-05-15T13:14:17.822Z,1.40
2023-05-15T13:16:46.796Z,1.00
2023-05-15T13:19:17.407Z,1.10
2023-05-15T13:21:45.997Z,0.90
2023-05-15T13:24:13.144Z,0.80
2023-05-15T13:26:41.105Z,1.40
2023-05-15T13:29:08.932Z,1.70
2023-05-15T13:31:38.411Z,1.40
2023-05-15T13:34:08.708Z,2.10
2023-05-15T13:36:36.261Z,1.40
2023-05-15T13:39:04.061Z,2.00
2023-05-15T13:41:31.175Z,1.30
2023-05-15T13:43:58.350Z,1.00
2023-05-15T13:46:25.742Z,1.10
2023-05-15T13:48:52.932Z,1.20
2023-05-15T13:51:19.929Z,1.40
2023-05-15T13:53:46.955Z,1.30
2023-05-15T13:56:14.136Z,1.20
2023-05-15T13:58:42.675Z,1.00
2023-05-15T14:01:09.954Z,0.90
2023-05-15T14:03:37.302Z,1.00
2023-05-15T14:06:05.255Z,1.00
2023-05-15T14:08:33.939Z,1.20
2023-05-15T14:11:01.722Z,1.40
2023-05-15T14:13:31.802Z,2.30
2023-05-15T14:15:59.060Z,0.90
2023-05-15T14:18:26.484Z,0.90
2023-05-15T14:20:54.820Z,0.80
2023-05-15T14:23:29.738Z,0.80
2023-05-15T14:25:58.516Z,0.60
2023-05-15T14:28:25.903Z,1.20
2023-05-15T14:30:53.022Z,1.10
2023-05-15T14:33:20.910Z,1.30
2023-05-15T14:35:48.244Z,0.80
2023-05-15T14:38:15.540Z,0.70
2023-05-15T14:40:43.353Z,1.70
2023-05-15T14:43:10.456Z,1.50
2023-05-15T14:45:37.591Z,1.20
2023-05-15T14:48:05.263Z,1.50
2023-05-15T14:50:32.461Z,1.00
2023-05-15T14:52:59.712Z,1.50
2023-05-15T14:55:27.327Z,1.60
2023-05-15T14:57:58.651Z,1.70
2023-05-15T15:00:27.480Z,2.40
2023-05-15T15:02:55.566Z,2.00
2023-05-15T15:05:23.145Z,1.40
2023-05-15T15:08:09.580Z,1.50
2023-05-15T15:10:37.873Z,0.80
2023-05-15T15:13:05.298Z,0.70
2023-05-15T15:15:32.991Z,2.10
2023-05-15T15:18:00.395Z,1.00
2023-05-15T15:20:28.152Z,1.10
2023-05-15T15:22:55.975Z,1.20
2023-05-15T15:25:23.127Z,1.50
2023-05-15T15:27:50.380Z,1.30
2023-05-15T15:30:17.833Z,1.20
2023-05-15T15:32:45.505Z,1.20
2023-05-15T15:35:13.269Z,0.60
2023-05-15T15:37:40.458Z,1.20
2023-05-15T15:40:08.481Z,1.90
2023-05-15T15:42:35.764Z,1.30
2023-05-15T15:45:03.088Z,1.60
2023-05-15T15:47:32.248Z,1.20
2023-05-15T15:49:59.860Z,1.10
2023-05-15T15:52:27.424Z,0.80
2023-05-15T15:54:54.550Z,1.40
2023-05-15T15:57:21.803Z,2.00
2023-05-15T15:59:49.757Z,1.20
2023-05-15T16:02:17.727Z,1.60
2023-05-15T16:04:45.428Z,2.10
2023-05-15T16:07:12.860Z,0.90
2023-05-15T16:09:40.829Z,1.10
2023-05-15T16:12:08.713Z,0.70
2023-05-15T16:14:36.069Z,1.00
2023-05-15T16:17:04.001Z,0.90
2023-05-15T16:19:31.612Z,1.20
2023-05-15T16:21:59.269Z,1.80
2023-05-15T16:24:26.549Z,0.90
2023-05-15T16:26:54.594Z,1.10
2023-05-15T16:29:22.324Z,0.80
2023-05-15T16:31:49.895Z,0.90
2023-05-15T16:34:17.440Z,0.70
2023-05-15T16:36:44.694Z,1.10
2023-05-15T16:39:12.092Z,0.80
2023-05-15T16:41:39.713Z,0.70
2023-05-15T16:44:11.338Z,0.80
2023-05-15T16:46:38.954Z,1.00
2023-05-15T16:49:06.786Z,1.10
2023-05-15T16:51:35.609Z,0.70
2023-05-15T16:54:04.103Z,0.80
2023-05-15T16:56:31.820Z,1.10
2023-05-15T16:58:59.081Z,0.70
2023-05-15T17:01:26.677Z,0.70
2023-05-15T17:03:53.993Z,0.90
2023-05-15T17:06:21.234Z,0.50
2023-05-15T17:08:48.591Z,0.70
2023-05-15T17:11:16.472Z,1.00
2023-05-15T17:13:43.603Z,1.20
2023-05-15T17:16:11.321Z,1.60
2023-05-15T17:18:40.241Z,1.70
2023-05-15T17:21:07.464Z,1.50
2023-05-15T17:23:34.890Z,2.20
2023-05-15T17:26:01.938Z,1.50
2023-05-15T17:28:29.058Z,2.30
2023-05-15T17:30:56.152Z,0.60
2023-05-15T17:33:23.281Z,1.60
2023-05-15T17:35:50.402Z,1.50
2023-05-15T17:38:17.509Z,1.00
2023-05-15T17:40:44.801Z,0.90
2023-05-15T17:43:12.156Z,1.00
2023-05-15T17:45:39.345Z,0.90
2023-05-15T17:48:07.313Z,0.60
2023-05-15T17:51:02.655Z,0.50
2023-05-15T17:53:29.904Z,1.00
2023-05-15T17:55:57.459Z,1.70
2023-05-15T17:58:25.444Z,1.50
2023-05-15T18:00:53.096Z,0.60
2023-05-15T18:03:20.502Z,1.00
2023-05-15T18:05:47.916Z,0.60
2023-05-15T18:08:15.049Z,0.60
2023-05-15T18:10:42.197Z,0.90
2023-05-15T18:13:13.302Z,2.00
2023-05-15T18:15:41.541Z,1.20
2023-05-15T18:18:08.818Z,0.70
2023-05-15T18:20:36.019Z,0.50
2023-05-15T18:23:03.060Z,0.60
2023-05-15T18:25:30.924Z,0.70
2023-05-15T18:27:58.072Z,0.90
2023-05-15T18:30:25.226Z,0.50
2023-05-15T18:32:52.428Z,0.20
2023-05-15T18:35:19.638Z,0.40
2023-05-15T18:37:46.673Z,0.40
2023-05-15T18:40:13.834Z,0.90
2023-05-15T18:42:40.971Z,0.80
2023-05-15T18:45:09.049Z,0.80
2023-05-15T18:47:36.651Z,0.90
2023-05-15T18:50:04.269Z,0.50
2023-05-15T18:52:31.555Z,0.40
2023-05-15T18:54:58.778Z,0.60
2023-05-15T18:57:26.438Z,0.50
2023-05-15T18:59:54.708Z,0.50
2023-05-15T19:02:24.530Z,1.00
2023-05-15T19:04:53.402Z,1.10
2023-05-15T19:07:20.663Z,0.20
2023-05-15T19:09:47.924Z,0.50
2023-05-15T19:12:14.953Z,0.50
2023-05-15T19:14:42.102Z,1.40
2023-05-15T19:17:09.356Z,0.60
2023-05-15T19:19:36.500Z,0.80
2023-05-15T19:22:03.765Z,0.40
2023-05-15T19:24:33.247Z,0.70
2023-05-15T19:27:01.432Z,1.20
2023-05-15T19:29:28.785Z,0.50
2023-05-15T19:31:55.971Z,1.70
2023-05-15T19:34:23.609Z,0.80
2023-05-15T19:36:51.151Z,0.60
2023-05-15T19:39:18.196Z,1.10
2023-05-15T19:41:45.442Z,0.70
2023-05-15T19:44:12.596Z,0.40
2023-05-15T19:46:40.571Z,0.70
2023-05-15T19:49:09.044Z,0.90
2023-05-15T19:51:36.500Z,1.00
2023-05-15T19:54:03.650Z,0.50
2023-05-15T19:56:31.206Z,1.10
2023-05-15T19:59:00.102Z,0.50
2023-05-15T20:01:27.293Z,0.80
2023-05-15T20:03:54.481Z,0.90
2023-05-15T20:06:21.747Z,1.10
2023-05-15T20:08:49.099Z,1.00
2023-05-15T20:11:16.249Z,0.70
2023-05-15T20:13:43.346Z,1.00
2023-05-15T20:16:12.924Z,0.50
2023-05-15T20:18:40.307Z,0.90
2023-05-15T20:21:07.524Z,0.80
2023-05-15T20:23:34.672Z,1.70
2023-05-15T20:26:02.019Z,1.10
2023-05-15T20:28:29.272Z,1.30
2023-05-15T20:30:57.297Z,0.70
2023-05-15T20:33:24.912Z,1.30
2023-05-15T20:35:52.144Z,0.70
2023-05-15T20:38:19.292Z,0.70
2023-05-15T20:40:46.750Z,1.30
2023-05-15T20:43:13.931Z,1.00
2023-05-15T20:45:41.292Z,0.80
2023-05-15T20:48:11.371Z,0.90
2023-05-15T20:50:39.136Z,0.80
2023-05-15T20:53:06.184Z,1.10
2023-05-15T20:55:33.228Z,1.10
2023-05-15T20:58:00.377Z,1.10
2023-05-15T21:00:27.741Z,0.70
2023-05-15T21:02:55.156Z,1.00
2023-05-15T21:05:22.540Z,0.90
2023-05-15T21:07:49.691Z,1.00
2023-05-15T21:10:17.051Z,1.30
2023-05-15T21:12:44.399Z,1.10
2023-05-15T21:15:12.058Z,0.80
2023-05-15T21:17:40.142Z,0.80
2023-05-15T21:20:08.512Z,1.30
2023-05-15T21:22:35.805Z,1.00
2023-05-15T21:25:03.114Z,1.00
2023-05-15T21:27:49.103Z,1.10
2023-05-15T21:30:34.580Z,0.90
2023-05-15T21:33:01.976Z,1.00
2023-05-15T21:35:31.237Z,1.00
2023-05-15T21:37:58.292Z,1.40
2023-05-15T21:40:25.873Z,0.80
2023-05-15T21:42:53.094Z,0.80
2023-05-15T21:45:20.152Z,0.80
2023-05-15T21:47:47.344Z,1.10
2023-05-15T21:50:14.535Z,0.80
2023-05-15T21:52:41.584Z,1.40
2023-05-15T21:55:09.351Z,0.80
2023-05-15T21:57:36.395Z,0.60
2023-05-15T22:00:04.778Z,0.90
2023-05-15T22:02:32.802Z,1.10
2023-05-15T22:05:00.171Z,1.10
2023-05-15T22:07:27.245Z,1.20
2023-05-15T22:09:54.291Z,0.90
2023-05-15T22:12:21.654Z,0.50
2023-05-15T22:14:58.401Z,1.00
2023-05-15T22:17:29.442Z,1.40
2023-05-15T22:20:07.527Z,0.80
2023-05-15T22:22:35.800Z,1.20
2023-05-15T22:25:03.192Z,1.00
2023-05-15T22:27:30.546Z,1.50
2023-05-15T22:29:57.807Z,1.20
2023-05-15T22:32:37.106Z,1.50
2023-05-15T22:35:23.122Z,1.50
2023-05-15T22:38:09.935Z,0.90
2023-05-15T22:40:55.919Z,0.80
2023-05-15T22:43:23.069Z,1.80
2023-05-15T22:45:50.226Z,0.90
2023-05-15T22:48:17.477Z,1.10
2023-05-15T22:50:44.932Z,0.90
2023-05-15T22:53:12.071Z,0.70
2023-05-15T22:55:39.232Z,0.90
2023-05-15T22:58:06.575Z,0.90
2023-05-15T23:00:34.236Z,0.90
2023-05-15T23:03:19.882Z,0.90
2023-05-15T23:06:06.240Z,0.80
2023-05-15T23:08:52.114Z,1.00
2023-05-15T23:11:19.149Z,0.90
2023-05-15T23:13:46.609Z,0.70
2023-05-15T23:16:13.792Z,0.80
2023-05-15T23:18:41.162Z,1.30
2023-05-15T23:21:08.159Z,1.40
2023-05-15T23:23:35.227Z,1.00
2023-05-15T23:26:02.454Z,1.20
2023-05-15T23:28:29.709Z,0.60
2023-05-15T23:30:56.876Z,0.80
2023-05-15T23:33:24.107Z,1.00
2023-05-15T23:35:52.586Z,0.60
2023-05-15T23:38:20.044Z,0.90
2023-05-15T23:40:48.729Z,0.70
2023-05-15T23:43:16.592Z,1.00
2023-05-15T23:45:43.743Z,0.80
2023-05-15T23:48:11.119Z,0.70
2023-05-15T23:50:38.246Z,1.30
2023-05-15T23:53:05.297Z,0.80
2023-05-15T23:55:33.160Z,0.80
2023-05-15T23:58:00.207Z,1.00
